Flight Track Log - Related Links

Times and Time Zones

All times are in EST time to prevent confusion due to time zone crossing. See the SWA4682 flight status page for this flight to view local times or setup timezone preferences in your user account.

Time Position Orientation Groundspeed Altitude Reporting Facility
EST Latitude Longitude Course Direction KTS MPH feet Rate Location/Type
Thu 09:41:40 PM 28.0000 -82.5333 360° North 145 167 1,100  Level Tampa TRACON
Thu 09:43:12 PM 28.0722 -82.5328 360° North 201 231 4,500 2,724 Climbing Jacksonville Center
Thu 09:44:12 PM 28.1514 -82.5347 359° North 239 275 8,000 3,150 Climbing Jacksonville Center
Thu 09:45:12 PM 28.2331 -82.5439 354° North 273 314 10,800 2,700 Climbing Jacksonville Center
Thu 09:46:12 PM 28.3331 -82.5553 354° North 321 369 13,400 2,900 Climbing Jacksonville Center
Thu 09:47:12 PM 28.4375 -82.5644 356° North 361 415 16,600 3,000 Climbing Jacksonville Center
Thu 09:48:12 PM 28.5481 -82.5783 354° North 380 437 19,400 2,800 Climbing Jacksonville Center
Thu 09:49:12 PM 28.6608 -82.5897 355° North 395 455 22,200 2,550 Climbing Jacksonville Center
Thu 09:50:12 PM 28.7736 -82.6036 354° North 400 460 24,500 2,200 Climbing Jacksonville Center
Thu 09:51:12 PM 28.8925 -82.6197 353° North 413 475 26,600 1,950 Climbing Jacksonville Center
Thu 09:52:12 PM 29.0117 -82.6361 353° North 423 487 28,400 1,800 Climbing Jacksonville Center
Thu 09:53:12 PM 29.1347 -82.6525 353° North 434 499 30,200 2,000 Climbing Jacksonville Center
Thu 09:54:12 PM 29.2558 -82.6689 353° North 439 505 32,400 2,150 Climbing Jacksonville Center
Thu 09:55:12 PM 29.3750 -82.6853 353° North 439 505 34,500 1,800 Climbing Jacksonville Center
Thu 09:56:12 PM 29.5086 -82.6922 357° North 433 498 36,000 1,250 Climbing Jacksonville Center
Thu 09:57:12 PM 29.6294 -82.6561 15° North 433 498 37,000 1,150 Climbing Jacksonville Center
Thu 09:58:12 PM 29.7547 -82.6078 19° North 445 512 38,300 1,000 Climbing Jacksonville Center
Thu 09:59:12 PM 29.8756 -82.5669 16° North 451 519 39,000 350 Climbing Jacksonville Center
Thu 10:00:12 PM 29.9944 -82.5208 19° North 451 519 39,000  Level Jacksonville Center
Thu 10:01:12 PM 30.1133 -82.4819 16° North 451 519 39,000  Level Jacksonville Center
Thu 10:02:12 PM 30.2364 -82.4381 17° North 451 519 39,000  Level Jacksonville Center
Thu 10:03:12 PM 30.3325 -82.4017 18° North 451 519 39,000  Level Jacksonville Center
Thu 10:04:12 PM 30.4636 -82.3553 17° North 446 513 39,000  Level Jacksonville Center
Thu 10:05:12 PM 30.5825 -82.3133 17° North 446 513 39,000  Level Jacksonville Center
Thu 10:06:12 PM 30.7033 -82.2667 18° North 446 513 39,000  Level Jacksonville Center
Thu 10:07:12 PM 30.8244 -82.2225 17° North 441 507 39,000  Level Jacksonville Center
Thu 10:08:12 PM 30.9389 -82.1781 18° North 441 507 39,000  Level Jacksonville Center
Thu 10:09:12 PM 31.0578 -82.1358 17° North 441 507 39,000  Level Jacksonville Center
Thu 10:10:12 PM 31.1764 -82.0889 19° North 441 507 39,000  Level Jacksonville Center
Thu 10:11:12 PM 31.2953 -82.0464 17° North 441 507 39,000  Level Jacksonville Center
Thu 10:12:12 PM 31.4222 -81.9967 18° North 433 498 39,000  Level Jacksonville Center
Thu 10:13:12 PM 31.5389 -81.9542 17° North 433 498 39,000  Level Jacksonville Center
Thu 10:14:12 PM 31.6469 -81.9114 19° North 443 510 39,000  Level Jacksonville Center
Thu 10:15:12 PM 31.7783 -81.8636 17° North 443 510 39,000  Level Jacksonville Center
Thu 10:16:12 PM 31.8969 -81.8183 18° North 442 509 39,000  Level Jacksonville Center
Thu 10:17:12 PM 32.0050 -81.7778 18° North 442 509 39,000  Level Jacksonville Center
Thu 10:18:12 PM 32.1342 -81.7272 18° North 442 509 39,000  Level Jacksonville Center
Thu 10:19:12 PM 32.2400 -81.6867 18° North 442 509 39,000  Level Jacksonville Center
Thu 10:20:12 PM 32.3692 -81.6381 18° North 437 503 39,000  Level Jacksonville Center
Thu 10:21:12 PM 32.4878 -81.5947 17° North 437 503 39,000  Level Jacksonville Center
Thu 10:22:12 PM 32.5936 -81.5536 18° North 437 503 39,000  Level Jacksonville Center
Thu 10:23:12 PM 32.7181 -81.4678 30° Northeast 449 517 39,000  Level Jacksonville Center
Thu 10:24:12 PM 32.8275 -81.3797 34° Northeast 460 529 39,000  Level Jacksonville Center
Thu 10:25:12 PM 32.9350 -81.2911 35° Northeast 465 535 39,000  Level Jacksonville Center
Thu 10:26:12 PM 33.0300 -81.2128 35° Northeast 465 535 39,000  Level Jacksonville Center
Thu 10:27:12 PM 33.1375 -81.1239 35° Northeast 465 535 39,000  Level Jacksonville Center
Thu 10:28:12 PM 33.2467 -81.0347 34° Northeast 465 535 39,000  Level Jacksonville Center
Thu 10:29:12 PM 33.3539 -80.9481 34° Northeast 465 535 39,000  Level Jacksonville Center
Thu 10:30:12 PM 33.4631 -80.8558 35° Northeast 465 535 39,000  Level Jacksonville Center
Thu 10:31:12 PM 33.5742 -80.7636 35° Northeast 465 535 39,000  Level Jacksonville Center
Thu 10:32:12 PM 33.6811 -80.6714 36° Northeast 470 541 39,000  Level Jacksonville Center
Thu 10:33:12 PM 33.7922 -80.5811 34° Northeast 470 541 39,000  Level Jacksonville Center
Thu 10:34:12 PM 33.9011 -80.4881 35° Northeast 470 541 39,000  Level Jacksonville Center
Thu 10:35:12 PM 34.0119 -80.3947 35° Northeast 476 548 39,000  Level Jacksonville Center
Thu 10:36:12 PM 34.1206 -80.3014 35° Northeast 476 548 39,000  Level Jacksonville Center
Thu 10:37:12 PM 34.2314 -80.2078 35° Northeast 476 548 39,000  Level Jacksonville Center
Thu 10:38:12 PM 34.3419 -80.1139 35° Northeast 482 555 39,000  Level Jacksonville Center
Thu 10:39:12 PM 34.4525 -80.0194 35° Northeast 482 555 39,000  Level Jacksonville Center
Thu 10:40:12 PM 34.5714 -79.9222 34° Northeast 482 555 39,000  Level Jacksonville Center
Thu 10:41:29 PM 34.6983 -79.8056 37° Northeast 497 572 39,000  Level Washington Center
Thu 10:42:29 PM 34.8081 -79.7150 34° Northeast 492 566 39,000  Level Washington Center
Thu 10:43:28 PM 34.9197 -79.6194 35° Northeast 492 566 39,000  Level Washington Center
Thu 10:44:28 PM 35.0294 -79.5233 36° Northeast 487 560 39,000  Level Washington Center
Thu 10:45:30 PM 35.1389 -79.4297 35° Northeast 487 560 39,000  Level Washington Center
Thu 10:46:31 PM 35.2506 -79.3333 35° Northeast 481 554 39,000  Level Washington Center
Thu 10:47:29 PM 35.3619 -79.2367 35° Northeast 487 560 39,000  Level Washington Center
Thu 10:48:28 PM 35.4797 -79.1322 36° Northeast 481 554 39,000  Level Washington Center
Thu 10:49:29 PM 35.5889 -79.0403 34° Northeast 476 548 39,000  Level Washington Center
Thu 10:50:29 PM 35.6981 -78.9425 36° Northeast 476 548 39,000  Level Washington Center
Thu 10:51:30 PM 35.8072 -78.8447 36° Northeast 481 554 39,000  Level Washington Center
Thu 10:52:28 PM 35.9183 -78.7467 36° Northeast 481 554 39,000  Level Washington Center
Thu 10:53:30 PM 36.0308 -78.6742 28° Northeast 470 541 39,000  Level Washington Center
Thu 10:54:28 PM 36.1475 -78.6042 26° Northeast 450 518 39,000  Level Washington Center
Thu 10:55:29 PM 36.2597 -78.5336 27° Northeast 445 512 39,000  Level Washington Center
Thu 10:56:29 PM 36.3742 -78.4631 26° Northeast 445 512 39,000  Level Washington Center
Thu 10:57:29 PM 36.4883 -78.3950 26° Northeast 450 518 39,000  Level Washington Center
Thu 10:58:28 PM 36.6028 -78.3242 26° Northeast 456 525 39,000  Level Washington Center
Thu 10:59:28 PM 36.7150 -78.2503 28° Northeast 456 525 39,000  Level Washington Center
Thu 11:00:28 PM 36.8314 -78.1792 26° Northeast 451 519 39,000  Level Washington Center
Thu 11:01:29 PM 36.9414 -78.1075 28° Northeast 451 519 39,000  Level Washington Center
Thu 11:02:30 PM 37.0553 -78.0356 27° Northeast 457 526 39,000  Level Washington Center
Thu 11:03:28 PM 37.1736 -77.9639 26° Northeast 457 526 39,000  Level Washington Center
Thu 11:04:29 PM 37.2858 -77.8889 28° Northeast 457 526 39,000  Level Washington Center
Thu 11:05:29 PM 37.3997 -77.8192 26° Northeast 457 526 39,000  Level Washington Center
Thu 11:06:29 PM 37.5136 -77.7467 27° Northeast 457 526 39,000  Level Washington Center
Thu 11:07:29 PM 37.6275 -77.6739 27° Northeast 457 526 39,000  Level Washington Center
Thu 11:08:30 PM 37.7392 -77.6033 27° Northeast 457 526 39,000  Level Washington Center
Thu 11:09:30 PM 37.8511 -77.5300 27° Northeast 457 526 39,000  Level Washington Center
Thu 11:10:28 PM 37.9628 -77.4567 27° Northeast 451 519 39,000  Level Washington Center
Thu 11:11:28 PM 38.0764 -77.3828 27° Northeast 451 519 39,000  Level Washington Center
Thu 11:12:29 PM 38.1903 -77.3089 27° Northeast 456 525 39,000  Level Washington Center
Thu 11:13:28 PM 38.3017 -77.2347 28° Northeast 456 525 39,000  Level Washington Center
Thu 11:14:28 PM 38.4131 -77.1631 27° Northeast 451 519 39,000  Level Washington Center
Thu 11:15:31 PM 38.5247 -77.0911 27° Northeast 451 519 39,000  Level Washington Center
Thu 11:16:28 PM 38.6361 -77.0189 27° Northeast 451 519 39,000  Level Washington Center
Thu 11:18:08 PM 38.8092 -76.9025 28° Northeast 471 542 39,000  Level New York Center
Thu 11:19:08 PM 38.9192 -76.8319 27° Northeast 460 529 39,000  Level New York Center
Thu 11:20:08 PM 39.0294 -76.7583 27° Northeast 449 517 39,000  Level New York Center
Thu 11:21:07 PM 39.1436 -76.6822 27° Northeast 449 517 39,000  Level New York Center
Thu 11:22:07 PM 39.2519 -76.6028 30° Northeast 449 517 39,000  Level New York Center
Thu 11:23:06 PM 39.3667 -76.5208 29° Northeast 454 522 39,000  Level New York Center
Thu 11:24:06 PM 39.4750 -76.4353 31° Northeast 459 528 39,000  Level New York Center
Thu 11:25:06 PM 39.5872 -76.3528 30° Northeast 459 528 39,000  Level New York Center
Thu 11:26:07 PM 39.6978 -76.2669 31° Northeast 459 528 39,000  Level New York Center
Thu 11:27:08 PM 39.8103 -76.1786 31° Northeast 465 535 39,000  Level New York Center
Thu 11:28:08 PM 39.9314 -76.0822 31° Northeast 473 544 39,000  Level New York Center
Thu 11:29:07 PM 40.0347 -76.0061 29° Northeast 473 544 39,000  Level New York Center
Thu 11:30:07 PM 40.1581 -75.9094 31° Northeast 466 536 39,000  Level New York Center
Thu 11:31:08 PM 40.2550 -75.8325 31° Northeast 459 528 39,000  Level New York Center
Thu 11:32:08 PM 40.3758 -75.7375 31° Northeast 459 528 39,000  Level New York Center
Thu 11:33:07 PM 40.4919 -75.6506 30° Northeast 459 528 39,000  Level New York Center
Thu 11:34:06 PM 40.6019 -75.5625 31° Northeast 465 535 39,000  Level New York Center
Thu 11:35:06 PM 40.7117 -75.4744 31° Northeast 460 529 39,000  Level New York Center
Thu 11:37:04 PM 40.9131 -75.3158 31° Northeast 476 548 39,000  Level Boston Center
Thu 11:38:04 PM 41.0258 -75.2272 31° Northeast 476 548 39,000  Level Boston Center
Thu 11:39:04 PM 41.1344 -75.1383 32° Northeast 471 542 39,000  Level Boston Center
Thu 11:40:04 PM 41.2450 -75.0461 32° Northeast 466 536 39,000  Level Boston Center
Thu 11:41:04 PM 41.3553 -74.9594 31° Northeast 461 531 39,000  Level Boston Center
Thu 11:42:04 PM 41.4633 -74.8722 31° Northeast 461 531 39,000  Level Boston Center
Thu 11:43:04 PM 41.5844 -74.7742 31° Northeast 461 531 39,000  Level Boston Center
Thu 11:44:04 PM 41.6925 -74.6836 32° Northeast 461 531 39,000  Level Boston Center
Thu 11:45:04 PM 41.7944 -74.5897 34° Northeast 456 525 39,000  Level Boston Center
Thu 11:46:04 PM 41.8700 -74.4447 55° Northeast 447 514 39,000 -350 Level Boston Center
Thu 11:47:04 PM 41.9306 -74.3125 58° Northeast 455 524 38,300 -800 Descending Boston Center
Thu 11:48:04 PM 41.9997 -74.1553 59° Northeast 468 539 37,400 -950 Descending Boston Center
Thu 11:49:04 PM 42.0667 -74.0033 59° Northeast 474 545 36,400 -950 Descending Boston Center
Thu 11:50:04 PM 42.1353 -73.8456 60° Northeast 479 551 35,500 -1,000 Descending Boston Center
Thu 11:51:04 PM 42.2144 -73.6622 60° Northeast 497 572 34,400 -1,000 Descending Boston Center
Thu 11:52:04 PM 42.2786 -73.5147 60° Northeast 484 557 33,500 -1,500 Descending Boston Center
Thu 11:53:04 PM 42.3361 -73.3839 59° Northeast 461 531 31,400 -2,350 Descending Boston Center
Thu 11:54:04 PM 42.4083 -73.2078 61° Northeast 467 537 28,800 -2,500 Descending Boston Center
Thu 11:55:04 PM 42.4694 -73.0594 61° Northeast 461 531 26,400 -2,350 Descending Boston Center
Thu 11:56:04 PM 42.5286 -72.9219 60° Northeast 437 503 24,100 -2,200 Descending Boston Center
Thu 11:57:04 PM 42.5853 -72.7925 59° Northeast 417 480 22,000 -2,100 Descending Boston Center
Thu 11:58:04 PM 42.6378 -72.6603 62° Northeast 399 459 19,900 -2,200 Descending Boston Center
Thu 11:59:04 PM 42.6922 -72.5417 58° Northeast 375 432 17,600 -2,200 Descending Boston Center
Fri 12:00:04 AM 42.7400 -72.4258 61° Northeast 362 417 15,500 -2,100 Descending Boston Center
Fri 12:01:04 AM 42.7881 -72.3072 61° Northeast 356 410 13,400 -2,050 Descending Boston Center
Fri 12:02:04 AM 42.8003 -72.1742 83° East 343 395 11,400 -1,250 Descending Boston Center
Fri 12:03:04 AM 42.7936 -72.0608 95° East 337 388 10,900 -1,000 Descending Boston Center
Fri 12:04:04 AM 42.7869 -71.9336 94° East 313 360 9,400 -1,600 Descending Boston Center
Fri 12:05:04 AM 42.7781 -71.8319 97° East 301 346 7,700 -1,650 Descending Boston Center
Fri 12:06:04 AM 42.7650 -71.7106 98° East 296 341 6,100 -1,500 Descending Boston Center
Fri 12:07:04 AM 42.7539 -71.6172 99° East 286 329 4,700 -1,550 Descending Boston Center
Fri 12:08:04 AM 42.7425 -71.5100 98° East 267 307 3,000 -1,200 Descending Boston Center
Fri 12:09:04 AM 42.7336 -71.4225 98° East 262 302 2,300 -500 Descending Boston Center
Fri 12:10:04 AM 42.7514 -71.3431 73° East 198 228 2,000 -150 Descending Boston Center
Fri 12:11:04 AM 42.7869 -71.3508 351° North 130 150 2,000  Level Boston Center
Fri 12:12:04 AM 42.8247 -71.3728 337° Northwest 116 133 2,000 -150 Level Boston Center
Fri 12:13:04 AM 42.8583 -71.3892 340° North 137 158 1,700 -550 Descending Boston Center
Fri 12:14:04 AM 42.8939 -71.4086 338° Northwest 131 151 900 -650 Descending Boston Center
Fri 12:15:04 AM 42.9169 -71.4281 328° Northwest 131 151 400 11,550 Descending Boston Center
Fri 12:16:04 AM 42.9525 -71.4500 336° Northwest 131 151 24,000 23,600 Climbing Boston Center

Login

Don't have an account? Register now (free) for customized features, flight alerts, and more!